Time;durP1;ratioP1;P1;durP2;ratioP2;P2;SDS_P1;SDS_P2;PMS_P1;PMS_P2;Temp;Humidity;BMP_temperature;BMP_pressure;BME280_temperature;BME280_humidity;BME280_pressure;Samples;Min_cycle;Max_cycle;Signal;HPM_P1;HPM_P2
2023/06/22 00:00:53;;;;;;;19.55;13.85;;;16.20;99.90;;;;;;5058228;28;20064;-77
2023/06/22 00:03:20;;;;;;;19.42;14.95;;;16.20;99.90;;;;;;5075786;28;20036;-76
2023/06/22 00:05:46;;;;;;;19.13;15.02;;;16.10;99.90;;;;;;5075911;28;20086;-76
2023/06/22 00:08:12;;;;;;;18.40;14.68;;;16.10;99.90;;;;;;5058081;28;20086;-76
2023/06/22 00:10:38;;;;;;;19.05;13.48;;;16.10;99.90;;;;;;5075767;28;20037;-76
2023/06/22 00:13:05;;;;;;;16.77;13.43;;;16.00;99.90;;;;;;5075760;28;20123;-76
2023/06/22 00:15:30;;;;;;;17.45;14.00;;;15.90;99.90;;;;;;5057712;28;20055;-76
2023/06/22 00:17:57;;;;;;;16.70;12.63;;;15.90;99.90;;;;;;5057843;28;20045;-76
2023/06/22 00:20:23;;;;;;;18.13;13.60;;;15.90;99.90;;;;;;5057427;28;20052;-76
2023/06/22 00:22:49;;;;;;;19.98;13.35;;;15.80;99.90;;;;;;5075577;28;20082;-76
2023/06/22 00:25:14;;;;;;;18.63;13.55;;;15.70;99.90;;;;;;5075582;28;20075;-76
2023/06/22 00:27:40;;;;;;;16.38;13.23;;;15.70;99.90;;;;;;5056908;28;20471;-76
2023/06/22 00:30:06;;;;;;;15.68;13.57;;;15.70;99.90;;;;;;5075408;28;20542;-76
2023/06/22 00:32:32;;;;;;;16.85;13.43;;;15.60;99.90;;;;;;5057641;28;20040;-76
2023/06/22 00:35:00;;;;;;;19.38;13.65;;;15.60;99.90;;;;;;5056976;28;20071;-77
2023/06/22 00:37:29;;;;;;;15.60;12.23;;;15.50;99.90;;;;;;5075296;28;20053;-76
2023/06/22 00:39:55;;;;;;;16.88;12.93;;;15.50;99.90;;;;;;5057290;28;20452;-76
2023/06/22 00:42:21;;;;;;;16.50;12.90;;;15.50;99.90;;;;;;5075167;28;20044;-77
2023/06/22 00:44:46;;;;;;;20.40;15.52;;;15.50;99.90;;;;;;5074873;28;20041;-76
2023/06/22 00:47:15;;;;;;;18.75;14.55;;;15.50;99.90;;;;;;5057096;28;20123;-77
2023/06/22 00:49:42;;;;;;;22.73;15.38;;;15.50;99.90;;;;;;5074838;28;20051;-77
2023/06/22 00:52:09;;;;;;;18.75;14.65;;;15.40;99.90;;;;;;5074990;28;20098;-77
2023/06/22 00:54:37;;;;;;;19.75;15.82;;;15.40;99.90;;;;;;5056801;28;20575;-77
2023/06/22 00:57:04;;;;;;;21.70;15.30;;;15.30;99.90;;;;;;5074841;28;20049;-77
2023/06/22 00:59:32;;;;;;;19.65;15.50;;;15.30;99.90;;;;;;5074768;28;20036;-77
2023/06/22 01:01:58;;;;;;;20.08;15.00;;;15.30;99.90;;;;;;5056886;28;20048;-76
2023/06/22 01:04:35;;;;;;;20.58;15.55;;;15.30;99.90;;;;;;5074725;28;20048;-77
2023/06/22 01:07:13;;;;;;;21.98;16.27;;;15.30;99.90;;;;;;5056985;28;20048;-77
2023/06/22 01:10:02;;;;;;;23.42;17.40;;;15.20;99.90;;;;;;5056444;28;20048;-76
2023/06/22 01:12:32;;;;;;;25.60;17.10;;;15.20;99.90;;;;;;5074621;28;20052;-76
2023/06/22 01:15:10;;;;;;;20.05;15.05;;;15.20;99.90;;;;;;5057181;28;20047;-76
2023/06/22 01:17:38;;;;;;;22.48;15.85;;;15.20;99.90;;;;;;5056566;28;20364;-76
2023/06/22 01:20:05;;;;;;;21.83;17.55;;;15.20;99.90;;;;;;5074435;28;20052;-77
2023/06/22 01:22:39;;;;;;;20.73;16.98;;;15.10;99.90;;;;;;5074278;28;20078;-76
2023/06/22 01:25:18;;;;;;;26.75;17.92;;;15.10;99.90;;;;;;5074159;28;20033;-77
2023/06/22 01:28:00;;;;;;;26.15;19.25;;;15.10;99.90;;;;;;5074369;28;20040;-76
2023/06/22 01:30:29;;;;;;;26.10;20.00;;;15.10;99.90;;;;;;5074296;28;20115;-76
2023/06/22 01:32:57;;;;;;;27.15;20.73;;;15.10;99.90;;;;;;5074231;28;20047;-76
2023/06/22 01:35:24;;;;;;;28.33;20.40;;;15.10;99.90;;;;;;5073587;28;20479;-76
2023/06/22 01:37:50;;;;;;;27.15;19.67;;;15.10;99.90;;;;;;5055731;28;20484;-76
2023/06/22 01:40:16;;;;;;;27.55;20.75;;;15.00;99.90;;;;;;5055501;28;20499;-76
2023/06/22 01:42:43;;;;;;;30.60;20.85;;;15.00;99.90;;;;;;5074331;28;20055;-76
2023/06/22 01:45:10;;;;;;;31.73;22.40;;;15.00;99.90;;;;;;5073927;28;20036;-77
2023/06/22 01:47:36;;;;;;;32.22;23.30;;;15.00;99.90;;;;;;5073814;28;20049;-77
2023/06/22 01:50:02;;;;;;;33.72;22.13;;;15.00;99.90;;;;;;5073880;28;20037;-77
2023/06/22 01:52:28;;;;;;;30.75;23.58;;;15.00;99.90;;;;;;5073866;28;20043;-77
2023/06/22 01:54:54;;;;;;;32.25;21.52;;;15.00;99.90;;;;;;5073767;28;20044;-77
2023/06/22 01:57:20;;;;;;;28.17;20.63;;;14.90;99.90;;;;;;5055793;28;20046;-76
2023/06/22 02:00:00;;;;;;;28.70;20.75;;;14.90;99.90;;;;;;5055721;28;20047;-77
2023/06/22 02:02:33;;;;;;;31.27;22.25;;;14.90;99.90;;;;;;5055605;28;20534;-77
2023/06/22 02:05:12;;;;;;;29.20;21.60;;;14.90;99.90;;;;;;5055922;28;20535;-77
2023/06/22 02:07:56;;;;;;;30.15;21.67;;;14.90;99.90;;;;;;5055767;28;20087;-77
2023/06/22 02:10:24;;;;;;;37.17;25.88;;;14.90;99.90;;;;;;5055628;28;20040;-76
2023/06/22 02:12:51;;;;;;;38.58;27.38;;;14.90;99.90;;;;;;5073654;28;20098;-77
2023/06/22 02:15:17;;;;;;;35.33;25.98;;;15.00;99.90;;;;;;5073404;28;20079;-77
2023/06/22 02:17:46;;;;;;;37.40;26.42;;;14.90;99.90;;;;;;5055673;28;20041;-77
2023/06/22 02:20:15;;;;;;;36.47;27.05;;;14.90;99.90;;;;;;5055446;28;20460;-77
2023/06/22 02:22:41;;;;;;;36.50;26.20;;;14.90;99.90;;;;;;5055816;28;20040;-77
2023/06/22 02:25:07;;;;;;;37.78;26.77;;;14.90;99.90;;;;;;5055453;28;20044;-77
2023/06/22 02:27:33;;;;;;;35.50;25.63;;;14.80;99.90;;;;;;5073473;28;20094;-77
2023/06/22 02:29:58;;;;;;;36.63;25.13;;;14.80;99.90;;;;;;5073425;28;20102;-77
2023/06/22 02:32:24;;;;;;;37.45;24.92;;;14.80;99.90;;;;;;5055485;28;20071;-77
2023/06/22 02:34:50;;;;;;;40.33;27.08;;;14.80;99.90;;;;;;5072875;28;20135;-76
2023/06/22 02:37:17;;;;;;;37.50;25.17;;;14.70;99.90;;;;;;5073264;28;20053;-77
2023/06/22 02:39:43;;;;;;;35.20;25.95;;;14.70;99.90;;;;;;5055545;28;20052;-76
2023/06/22 02:42:10;;;;;;;34.70;25.08;;;14.70;99.90;;;;;;5055589;28;20411;-77
2023/06/22 02:44:36;;;;;;;32.45;23.92;;;14.70;99.90;;;;;;5055448;28;20097;-76
2023/06/22 02:47:02;;;;;;;31.85;24.10;;;14.70;99.90;;;;;;5073301;28;20041;-76
2023/06/22 02:49:28;;;;;;;31.92;22.75;;;14.70;99.90;;;;;;5073579;28;20047;-76
2023/06/22 02:51:55;;;;;;;27.08;19.60;;;14.60;99.90;;;;;;5059226;28;20040;-77
2023/06/22 02:54:20;;;;;;;26.35;20.42;;;14.60;99.90;;;;;;5077064;28;20046;-77
2023/06/22 02:56:46;;;;;;;27.40;20.38;;;14.60;99.90;;;;;;5076984;28;20040;-76
2023/06/22 02:59:12;;;;;;;30.75;19.95;;;14.60;99.90;;;;;;5058982;28;20044;-76
2023/06/22 03:01:39;;;;;;;34.03;23.88;;;14.60;99.90;;;;;;5058850;28;20416;-76
2023/06/22 03:04:07;;;;;;;30.90;23.08;;;14.60;99.90;;;;;;5058469;28;20476;-76
2023/06/22 03:06:33;;;;;;;32.40;22.13;;;14.60;99.90;;;;;;5058402;28;20044;-76
2023/06/22 03:09:03;;;;;;;29.38;21.13;;;14.60;99.90;;;;;;5074857;28;20044;-76
2023/06/22 03:11:30;;;;;;;30.90;20.13;;;14.50;99.90;;;;;;5075863;28;20076;-76
2023/06/22 03:13:56;;;;;;;31.23;20.58;;;14.50;99.90;;;;;;5058627;28;20048;-77
2023/06/22 03:16:22;;;;;;;34.67;24.13;;;14.60;99.90;;;;;;5058570;28;20049;-77
2023/06/22 03:18:47;;;;;;;38.60;23.05;;;14.50;99.90;;;;;;5076628;28;20127;-77
2023/06/22 03:21:15;;;;;;;35.65;23.23;;;14.50;99.90;;;;;;5058424;28;20132;-77
2023/06/22 03:23:43;;;;;;;34.35;24.73;;;14.50;99.90;;;;;;5058709;28;20048;-77
2023/06/22 03:26:10;;;;;;;34.50;23.60;;;14.50;99.90;;;;;;5058362;28;20390;-76
2023/06/22 03:28:36;;;;;;;39.88;23.63;;;14.50;99.90;;;;;;5058353;28;20045;-77
2023/06/22 03:31:06;;;;;;;33.60;23.55;;;14.50;99.90;;;;;;5076233;28;20041;-77
2023/06/22 03:33:32;;;;;;;33.95;23.55;;;14.50;99.90;;;;;;5058251;28;20090;-76
2023/06/22 03:35:58;;;;;;;39.35;23.77;;;14.50;99.90;;;;;;5058049;28;20052;-76
2023/06/22 03:38:25;;;;;;;40.65;24.77;;;14.50;99.90;;;;;;5058186;28;20076;-77
2023/06/22 03:40:50;;;;;;;40.15;26.65;;;14.50;99.90;;;;;;5058386;28;20048;-77
2023/06/22 03:43:16;;;;;;;37.90;24.35;;;14.60;99.90;;;;;;5058201;28;20040;-77
2023/06/22 03:45:42;;;;;;;33.15;23.55;;;14.60;99.90;;;;;;5058116;28;20044;-77
2023/06/22 03:48:07;;;;;;;36.70;24.35;;;14.60;99.90;;;;;;5058028;28;20091;-77
2023/06/22 03:50:33;;;;;;;37.75;25.67;;;14.60;99.90;;;;;;5058066;28;20089;-77
2023/06/22 03:52:59;;;;;;;44.10;27.13;;;14.60;99.90;;;;;;5076065;28;20036;-77
2023/06/22 03:55:24;;;;;;;42.00;25.95;;;14.70;99.90;;;;;;5057800;28;20076;-77
2023/06/22 03:57:50;;;;;;;40.58;26.58;;;14.70;99.90;;;;;;5058215;28;20044;-77
2023/06/22 04:00:16;;;;;;;39.33;25.23;;;14.80;99.90;;;;;;5057846;28;20048;-77
2023/06/22 04:02:42;;;;;;;38.03;24.92;;;14.80;99.90;;;;;;5056886;28;20040;-77
2023/06/22 04:05:09;;;;;;;37.95;25.60;;;14.80;99.90;;;;;;5058023;28;20049;-77
2023/06/22 04:07:36;;;;;;;41.17;26.20;;;14.90;99.90;;;;;;5057886;28;20044;-77
2023/06/22 04:10:03;;;;;;;40.88;27.27;;;14.90;99.90;;;;;;5057673;28;20455;-77
2023/06/22 04:12:29;;;;;;;44.97;27.50;;;15.10;99.90;;;;;;5057581;28;20502;-77
2023/06/22 04:14:55;;;;;;;40.42;25.83;;;15.20;99.90;;;;;;5057736;28;20048;-77
2023/06/22 04:17:20;;;;;;;39.40;25.30;;;15.30;99.90;;;;;;5075686;28;20052;-77
2023/06/22 04:19:46;;;;;;;41.72;24.83;;;15.30;99.90;;;;;;5075315;28;20070;-77
2023/06/22 04:22:12;;;;;;;37.47;24.75;;;15.30;99.90;;;;;;5075566;28;20041;-77
2023/06/22 04:24:37;;;;;;;37.05;23.92;;;15.30;99.90;;;;;;5057413;28;20049;-77
2023/06/22 04:27:03;;;;;;;39.95;24.52;;;15.40;99.90;;;;;;5057435;28;20058;-77
2023/06/22 04:29:30;;;;;;;35.28;22.85;;;15.40;99.90;;;;;;5075459;28;20036;-77
2023/06/22 04:32:02;;;;;;;35.75;22.83;;;15.40;99.90;;;;;;5075263;28;20502;-77
2023/06/22 04:34:28;;;;;;;32.92;21.85;;;15.60;99.90;;;;;;5056935;28;20052;-78
2023/06/22 04:36:56;;;;;;;30.77;21.65;;;15.60;99.90;;;;;;5056917;28;20055;-77
2023/06/22 04:39:22;;;;;;;34.17;21.67;;;15.80;99.90;;;;;;5057463;28;20053;-77
2023/06/22 04:41:47;;;;;;;30.73;20.58;;;15.90;99.90;;;;;;5056941;28;20075;-77
2023/06/22 04:44:23;;;;;;;30.00;20.67;;;16.00;99.90;;;;;;5057173;28;20049;-77
2023/06/22 04:47:02;;;;;;;34.47;23.08;;;16.10;99.90;;;;;;5056851;28;20041;-77
2023/06/22 04:49:37;;;;;;;39.58;26.50;;;16.30;99.90;;;;;;5057110;28;20048;-77
2023/06/22 04:52:05;;;;;;;38.67;25.00;;;16.40;99.90;;;;;;5057046;28;20053;-77
2023/06/22 04:54:34;;;;;;;36.63;24.02;;;16.50;99.90;;;;;;5056591;28;20496;-77
2023/06/22 04:57:01;;;;;;;35.35;24.60;;;16.50;99.90;;;;;;5057184;28;20124;-77
2023/06/22 04:59:30;;;;;;;45.05;30.52;;;16.70;99.90;;;;;;5074503;28;20500;-77
2023/06/22 05:02:02;;;;;;;58.17;36.30;;;16.80;99.90;;;;;;5056538;28;20053;-77
2023/06/22 05:04:31;;;;;;;65.43;39.42;;;17.10;99.90;;;;;;5074410;28;20052;-77
2023/06/22 05:06:57;;;;;;;61.17;38.35;;;17.30;99.90;;;;;;5074639;28;20044;-77
2023/06/22 05:09:24;;;;;;;57.80;39.92;;;17.30;99.90;;;;;;5074507;28;20041;-77
2023/06/22 05:11:50;;;;;;;55.83;39.97;;;17.50;99.90;;;;;;5056507;28;20044;-77
2023/06/22 05:14:16;;;;;;;60.72;41.17;;;17.70;99.90;;;;;;5056447;28;20040;-77
2023/06/22 05:16:42;;;;;;;57.67;39.25;;;17.80;99.90;;;;;;5056132;28;20071;-77
2023/06/22 05:19:08;;;;;;;59.33;40.42;;;17.90;99.90;;;;;;5074352;28;20040;-77
2023/06/22 05:21:34;;;;;;;63.65;42.05;;;18.00;99.90;;;;;;5056517;28;20048;-77
2023/06/22 05:24:02;;;;;;;60.40;40.35;;;18.10;99.90;;;;;;5056155;28;20047;-78
2023/06/22 05:26:29;;;;;;;55.50;39.40;;;18.20;99.90;;;;;;5056101;28;20040;-77
2023/06/22 05:28:54;;;;;;;57.15;38.85;;;18.40;99.90;;;;;;5055917;28;20043;-78
2023/06/22 05:31:20;;;;;;;52.17;37.50;;;18.60;99.90;;;;;;5056347;28;20032;-78
2023/06/22 05:33:47;;;;;;;53.80;36.22;;;18.80;99.90;;;;;;5073735;28;20048;-78
2023/06/22 05:36:14;;;;;;;56.25;37.60;;;18.90;99.90;;;;;;5073754;28;20480;-78
2023/06/22 05:38:41;;;;;;;45.40;34.20;;;19.00;99.90;;;;;;5073679;28;20048;-77
2023/06/22 05:41:07;;;;;;;47.38;35.08;;;19.10;99.90;;;;;;5056065;28;20422;-77
2023/06/22 05:43:33;;;;;;;49.35;33.30;;;19.30;99.90;;;;;;5055949;28;20165;-77
2023/06/22 05:46:00;;;;;;;45.15;31.67;;;19.30;99.90;;;;;;5073609;28;20455;-78
2023/06/22 05:48:26;;;;;;;44.80;32.42;;;19.40;99.90;;;;;;5055720;28;20440;-78
2023/06/22 05:50:52;;;;;;;40.30;30.15;;;19.60;99.90;;;;;;5055687;28;20538;-78
2023/06/22 05:53:18;;;;;;;41.80;30.25;;;19.60;99.90;;;;;;5055892;28;20094;-76
2023/06/22 05:55:44;;;;;;;39.53;30.35;;;19.70;99.90;;;;;;5055540;28;20476;-77
2023/06/22 05:58:09;;;;;;;39.28;29.77;;;19.80;99.90;;;;;;5055524;28;20110;-77
2023/06/22 06:00:36;;;;;;;42.55;30.60;;;20.10;99.90;;;;;;5055707;28;20119;-76
2023/06/22 06:03:03;;;;;;;37.30;27.52;;;20.00;99.90;;;;;;5055681;28;20056;-77
2023/06/22 06:05:33;;;;;;;35.75;26.55;;;20.20;99.90;;;;;;5055623;28;20040;-76
2023/06/22 06:08:04;;;;;;;33.10;25.20;;;20.30;99.90;;;;;;5055482;28;20415;-76
2023/06/22 06:10:31;;;;;;;34.33;26.23;;;20.30;99.90;;;;;;5073578;28;20170;-76
2023/06/22 06:12:57;;;;;;;31.08;25.25;;;20.20;99.90;;;;;;5055574;28;20490;-77
2023/06/22 06:15:23;;;;;;;35.17;24.67;;;20.30;99.90;;;;;;5073477;28;20127;-77
2023/06/22 06:17:50;;;;;;;33.58;25.67;;;20.30;99.90;;;;;;5055179;28;20434;-77
2023/06/22 06:20:20;;;;;;;31.40;24.17;;;20.40;99.90;;;;;;5073437;28;20070;-77
2023/06/22 06:22:46;;;;;;;32.08;24.15;;;20.30;99.90;;;;;;5055442;28;20395;-76
2023/06/22 06:25:15;;;;;;;27.67;21.45;;;20.40;99.90;;;;;;5072924;28;20054;-76
2023/06/22 06:27:45;;;;;;;24.85;19.83;;;20.50;99.90;;;;;;5048224;28;20534;-75
2023/06/22 06:30:12;;;;;;;22.08;18.98;;;20.60;99.90;;;;;;5040755;28;20151;-75
2023/06/22 06:32:38;;;;;;;27.27;22.00;;;20.50;99.90;;;;;;5035296;28;20065;-76
2023/06/22 06:35:06;;;;;;;28.42;21.33;;;20.40;99.90;;;;;;5052659;28;20156;-76
2023/06/22 06:37:37;;;;;;;30.23;21.60;;;20.60;99.90;;;;;;5052937;28;20132;-77
2023/06/22 06:40:05;;;;;;;27.20;21.70;;;20.60;99.90;;;;;;5035003;28;20052;-76
2023/06/22 06:42:31;;;;;;;26.70;21.67;;;20.60;99.90;;;;;;5052814;28;20045;-76
2023/06/22 06:44:57;;;;;;;26.17;20.35;;;20.60;99.90;;;;;;5052825;28;20055;-79
2023/06/22 06:47:22;;;;;;;26.55;21.48;;;20.70;99.90;;;;;;5035183;28;20048;-76
2023/06/22 06:49:48;;;;;;;27.58;21.45;;;20.60;99.90;;;;;;5052906;28;20044;-75
2023/06/22 06:52:13;;;;;;;27.00;19.88;;;20.60;99.90;;;;;;5052914;28;20501;-75
2023/06/22 06:54:39;;;;;;;27.15;20.05;;;20.80;99.90;;;;;;5035003;28;20095;-78
2023/06/22 06:57:05;;;;;;;24.27;18.17;;;20.70;99.90;;;;;;5035013;28;20107;-77
2023/06/22 06:59:30;;;;;;;26.85;20.30;;;20.90;99.90;;;;;;5034959;28;20392;-76
2023/06/22 07:01:56;;;;;;;24.40;17.55;;;21.00;99.90;;;;;;5052654;28;20045;-76
2023/06/22 07:04:21;;;;;;;22.27;15.93;;;21.00;99.90;;;;;;5034573;28;20185;-75
2023/06/22 07:06:47;;;;;;;19.13;15.20;;;21.10;99.90;;;;;;5034683;28;20072;-80
2023/06/22 07:09:13;;;;;;;19.48;14.30;;;21.20;99.90;;;;;;5034595;28;20080;-77
2023/06/22 07:11:38;;;;;;;18.13;14.20;;;21.10;99.90;;;;;;5034836;28;20056;-77
2023/06/22 07:14:04;;;;;;;17.90;12.27;;;21.40;99.90;;;;;;5034677;28;20474;-78
2023/06/22 07:16:31;;;;;;;21.13;15.75;;;21.50;99.90;;;;;;5046737;28;20060;-78
2023/06/22 07:18:57;;;;;;;23.17;16.92;;;21.60;99.90;;;;;;5051039;28;20132;-77
2023/06/22 07:21:22;;;;;;;21.38;15.10;;;21.60;99.90;;;;;;5051119;28;20131;-77
2023/06/22 07:23:48;;;;;;;23.40;16.58;;;21.70;99.90;;;;;;5051038;28;20102;-76
2023/06/22 07:26:13;;;;;;;22.33;16.05;;;21.80;99.90;;;;;;5051096;28;20128;-76
2023/06/22 07:28:40;;;;;;;20.05;14.25;;;21.80;99.90;;;;;;5052483;28;20044;-77
2023/06/22 07:31:06;;;;;;;18.48;13.80;;;21.90;99.90;;;;;;5051276;28;20107;-77
2023/06/22 07:33:32;;;;;;;18.40;13.85;;;21.90;99.90;;;;;;5051006;28;20052;-77
2023/06/22 07:35:57;;;;;;;18.67;14.18;;;22.10;99.90;;;;;;5052123;28;20056;-77
2023/06/22 07:38:24;;;;;;;18.75;14.85;;;22.20;99.90;;;;;;5055645;28;20080;-76
2023/06/22 07:40:50;;;;;;;16.75;12.60;;;22.40;99.90;;;;;;5054803;28;20511;-76
2023/06/22 07:43:16;;;;;;;16.73;12.95;;;22.30;99.90;;;;;;5055971;28;20049;-76
2023/06/22 07:45:52;;;;;;;15.32;11.43;;;22.50;99.90;;;;;;5056030;28;20166;-75
2023/06/22 07:48:21;;;;;;;15.85;11.90;;;22.70;99.90;;;;;;5055965;28;20056;-76
2023/06/22 07:50:46;;;;;;;13.38;11.18;;;22.70;99.90;;;;;;5054660;28;20049;-76
2023/06/22 07:53:12;;;;;;;15.43;11.93;;;22.80;99.90;;;;;;5055689;28;20074;-77
2023/06/22 07:55:37;;;;;;;17.40;14.15;;;22.90;99.90;;;;;;5055707;28;20048;-75
2023/06/22 07:58:03;;;;;;;19.38;15.10;;;22.80;99.90;;;;;;5054530;28;20143;-76
2023/06/22 08:00:29;;;;;;;20.83;14.50;;;22.70;99.90;;;;;;5054169;28;20041;-76
2023/06/22 08:02:54;;;;;;;18.98;15.18;;;22.80;99.90;;;;;;5055497;28;20037;-75
2023/06/22 08:05:20;;;;;;;17.63;14.73;;;22.80;99.90;;;;;;5055366;28;20068;-78
2023/06/22 08:07:46;;;;;;;23.02;18.27;;;22.90;99.90;;;;;;5054159;28;20485;-77
2023/06/22 08:10:12;;;;;;;25.88;18.70;;;23.10;99.90;;;;;;5054633;28;20060;-76
2023/06/22 08:12:41;;;;;;;23.02;18.50;;;23.00;99.90;;;;;;5054126;28;20068;-76
2023/06/22 08:15:08;;;;;;;20.95;17.08;;;23.10;99.90;;;;;;5054054;28;20083;-74
2023/06/22 08:17:33;;;;;;;18.75;14.93;;;23.00;99.90;;;;;;5054396;28;20049;-75
2023/06/22 08:19:59;;;;;;;19.67;14.50;;;23.10;99.90;;;;;;5057176;28;20048;-77
2023/06/22 08:22:25;;;;;;;18.42;12.90;;;23.20;99.90;;;;;;5075393;28;20083;-76
2023/06/22 08:24:51;;;;;;;17.38;11.73;;;23.10;99.90;;;;;;5057511;28;20131;-76
2023/06/22 08:27:18;;;;;;;16.63;11.70;;;23.10;99.90;;;;;;5057920;28;20075;-76
2023/06/22 08:29:45;;;;;;;13.63;11.15;;;23.20;99.90;;;;;;5057194;28;20440;-78
2023/06/22 08:32:11;;;;;;;12.95;9.27;;;23.10;99.90;;;;;;5075207;28;20059;-77
2023/06/22 08:34:42;;;;;;;15.23;10.45;;;23.20;99.90;;;;;;5057125;28;20057;-77
2023/06/22 08:37:09;;;;;;;14.60;10.50;;;23.40;99.90;;;;;;5057058;28;20090;-77
2023/06/22 08:39:35;;;;;;;13.45;10.02;;;23.10;99.90;;;;;;5075061;28;20051;-77
2023/06/22 08:42:01;;;;;;;16.08;11.18;;;22.90;99.90;;;;;;5057034;28;20123;-76
2023/06/22 08:44:26;;;;;;;14.35;11.25;;;23.10;99.90;;;;;;5074879;28;20083;-77
2023/06/22 08:46:52;;;;;;;13.15;10.30;;;23.20;99.90;;;;;;5057262;28;20048;-78
2023/06/22 08:49:17;;;;;;;15.48;11.52;;;23.40;99.90;;;;;;5056678;28;20052;-77
2023/06/22 08:51:45;;;;;;;15.05;10.23;;;23.40;99.90;;;;;;5074893;28;20165;-77
2023/06/22 08:54:11;;;;;;;14.20;9.27;;;23.20;99.90;;;;;;5056817;28;20048;-78
2023/06/22 08:56:36;;;;;;;12.10;8.27;;;23.40;99.90;;;;;;5074537;28;20123;-77
2023/06/22 08:59:02;;;;;;;11.88;7.72;;;23.40;99.90;;;;;;5056682;28;20052;-77
2023/06/22 09:01:28;;;;;;;10.90;7.40;;;23.70;99.90;;;;;;5074733;28;20052;-77
2023/06/22 09:03:57;;;;;;;11.35;6.80;;;23.90;99.90;;;;;;5056731;28;20045;-76
2023/06/22 09:06:24;;;;;;;13.27;8.15;;;23.80;99.90;;;;;;5074796;28;20055;-79
2023/06/22 09:08:49;;;;;;;12.18;6.78;;;23.60;99.90;;;;;;5074702;28;20127;-78
2023/06/22 09:11:15;;;;;;;11.57;7.85;;;23.60;99.90;;;;;;5056461;28;20178;-77
2023/06/22 09:13:41;;;;;;;11.45;7.50;;;23.70;99.90;;;;;;5056400;28;20052;-77
2023/06/22 09:16:06;;;;;;;11.20;7.25;;;23.80;99.90;;;;;;5056299;28;20506;-77
2023/06/22 09:18:33;;;;;;;9.32;6.15;;;23.80;99.90;;;;;;5074532;28;20043;-77
2023/06/22 09:20:59;;;;;;;10.43;7.18;;;23.60;99.90;;;;;;5074422;28;20045;-76
2023/06/22 09:23:25;;;;;;;10.18;7.13;;;23.60;99.90;;;;;;5056335;28;20380;-76
2023/06/22 09:25:50;;;;;;;10.80;7.93;;;23.70;99.90;;;;;;5056306;28;20045;-76
2023/06/22 09:28:16;;;;;;;13.48;8.30;;;23.90;99.90;;;;;;5056560;28;20076;-76
2023/06/22 09:30:44;;;;;;;10.18;8.32;;;24.10;99.90;;;;;;5074297;28;20041;-77
2023/06/22 09:33:10;;;;;;;10.35;7.60;;;24.00;99.90;;;;;;5056175;28;20110;-76
2023/06/22 09:35:37;;;;;;;11.38;7.20;;;24.00;99.90;;;;;;5052428;28;20476;-76
2023/06/22 09:38:04;;;;;;;11.25;7.70;;;24.10;99.90;;;;;;5052774;28;20048;-76
2023/06/22 09:40:29;;;;;;;10.98;8.00;;;24.20;99.90;;;;;;5053731;28;20060;-76
2023/06/22 09:42:55;;;;;;;13.05;8.00;;;24.20;99.90;;;;;;5052691;28;20033;-77
2023/06/22 09:45:21;;;;;;;9.13;7.45;;;24.00;99.90;;;;;;5053967;28;20080;-77
2023/06/22 09:47:46;;;;;;;13.20;7.43;;;23.80;99.90;;;;;;5052608;28;20060;-76
2023/06/22 09:50:12;;;;;;;10.75;7.05;;;23.70;99.90;;;;;;5054100;28;20041;-77
2023/06/22 09:52:37;;;;;;;9.02;5.50;;;23.90;99.90;;;;;;5053642;28;20554;-77
2023/06/22 09:55:04;;;;;;;10.57;7.00;;;24.10;99.90;;;;;;5053767;28;20171;-77
2023/06/22 09:57:30;;;;;;;12.25;7.93;;;23.90;99.90;;;;;;5052648;28;20120;-76
2023/06/22 09:59:55;;;;;;;13.40;9.40;;;24.20;99.90;;;;;;5051711;28;20041;-77
2023/06/22 10:02:22;;;;;;;9.68;7.72;;;24.30;99.90;;;;;;5052519;28;20056;-77
2023/06/22 10:04:48;;;;;;;10.68;7.55;;;24.40;99.90;;;;;;5052554;28;20059;-76
2023/06/22 10:07:13;;;;;;;12.60;8.68;;;24.10;99.90;;;;;;5052710;28;20060;-77
2023/06/22 10:09:39;;;;;;;12.43;8.73;;;23.90;99.90;;;;;;5052202;28;20123;-76
2023/06/22 10:12:05;;;;;;;12.25;8.30;;;24.00;99.90;;;;;;5052556;28;20534;-77
2023/06/22 10:14:31;;;;;;;12.70;7.65;;;24.10;99.90;;;;;;5052386;28;20045;-78
2023/06/22 10:16:56;;;;;;;12.20;8.02;;;24.30;99.90;;;;;;5053364;28;20044;-76
2023/06/22 10:19:22;;;;;;;10.05;7.38;;;24.20;99.90;;;;;;5053479;28;20072;-76
2023/06/22 10:21:48;;;;;;;11.52;8.10;;;24.50;99.90;;;;;;5053460;28;20045;-77
2023/06/22 10:24:13;;;;;;;11.48;8.90;;;24.50;99.90;;;;;;5052176;28;20045;-76
2023/06/22 10:26:39;;;;;;;12.18;8.02;;;24.60;99.90;;;;;;5053206;28;20516;-77
2023/06/22 10:29:05;;;;;;;13.38;8.18;;;24.70;99.90;;;;;;5053251;28;20076;-77
2023/06/22 10:31:30;;;;;;;10.80;6.97;;;24.80;99.90;;;;;;5051766;28;20053;-76
2023/06/22 10:33:57;;;;;;;13.80;8.40;;;24.90;99.90;;;;;;5054803;28;20057;-76
2023/06/22 10:36:23;;;;;;;10.68;8.02;;;24.60;99.90;;;;;;5054969;28;20068;-77
2023/06/22 10:38:49;;;;;;;10.10;5.82;;;24.40;99.90;;;;;;5073001;28;20048;-76
2023/06/22 10:41:16;;;;;;;10.07;7.25;;;24.80;99.90;;;;;;5055043;28;20055;-76
2023/06/22 10:43:42;;;;;;;11.00;6.85;;;24.50;99.90;;;;;;5073049;28;20131;-77
2023/06/22 10:46:07;;;;;;;8.18;6.43;;;24.60;99.90;;;;;;5055083;28;20123;-77
2023/06/22 10:48:33;;;;;;;8.50;6.22;;;25.00;99.90;;;;;;5073070;28;20048;-77
2023/06/22 10:50:59;;;;;;;8.18;5.90;;;24.90;99.90;;;;;;5055243;28;20533;-77
2023/06/22 10:53:25;;;;;;;7.88;5.70;;;25.10;99.90;;;;;;5072914;28;20090;-77
2023/06/22 10:55:50;;;;;;;6.90;5.30;;;25.00;99.90;;;;;;5054839;28;20486;-77
2023/06/22 10:58:18;;;;;;;6.28;4.20;;;25.00;99.90;;;;;;5054990;28;20036;-77
2023/06/22 11:00:44;;;;;;;6.97;4.10;;;25.20;99.90;;;;;;5055120;28;20053;-77
2023/06/22 11:03:10;;;;;;;8.32;4.10;;;24.60;99.90;;;;;;5073200;28;20045;-77
2023/06/22 11:05:35;;;;;;;6.13;3.40;;;24.80;99.90;;;;;;5054954;28;20482;-77
2023/06/22 11:08:01;;;;;;;5.35;2.97;;;24.80;99.90;;;;;;5072884;28;20037;-77
2023/06/22 11:10:27;;;;;;;6.47;2.63;;;24.90;99.90;;;;;;5055368;28;20368;-77
2023/06/22 11:12:53;;;;;;;8.75;3.00;;;24.90;99.90;;;;;;5058938;28;20044;-77
2023/06/22 11:15:18;;;;;;;6.57;2.47;;;24.80;99.90;;;;;;5076678;28;20037;-78
2023/06/22 11:17:44;;;;;;;5.20;2.25;;;24.70;99.90;;;;;;5076862;28;20099;-78
2023/06/22 11:20:11;;;;;;;7.07;2.30;;;24.60;99.90;;;;;;5058661;28;20036;-77
2023/06/22 11:22:45;;;;;;;4.20;1.77;;;24.70;99.90;;;;;;5058820;28;20048;-78
2023/06/22 11:25:12;;;;;;;3.58;1.95;;;24.70;99.90;;;;;;5058877;28;20437;-77
2023/06/22 11:27:37;;;;;;;6.22;2.00;;;25.10;99.90;;;;;;5058519;28;20085;-77
2023/06/22 11:30:03;;;;;;;4.10;1.90;;;25.50;99.90;;;;;;5058526;28;20049;-77
2023/06/22 11:32:29;;;;;;;4.35;2.30;;;25.60;99.90;;;;;;5058342;28;20033;-77
2023/06/22 11:34:57;;;;;;;5.43;2.30;;;25.70;99.90;;;;;;5057813;28;20060;-78
2023/06/22 11:37:22;;;;;;;5.50;2.55;;;25.30;99.90;;;;;;5058831;28;20052;-78
2023/06/22 11:39:48;;;;;;;4.95;2.53;;;24.50;99.90;;;;;;5076314;28;20502;-78
2023/06/22 11:42:14;;;;;;;6.93;2.28;;;24.70;99.90;;;;;;5076092;28;20055;-77
2023/06/22 11:44:39;;;;;;;12.65;2.28;;;25.00;99.90;;;;;;5058347;28;20064;-78
2023/06/22 11:47:05;;;;;;;6.10;2.08;;;24.90;99.90;;;;;;5058268;28;20048;-78
2023/06/22 11:49:31;;;;;;;6.38;2.45;;;24.50;99.90;;;;;;5076047;28;20093;-77
2023/06/22 11:51:57;;;;;;;5.65;2.30;;;24.40;99.90;;;;;;5058116;28;20123;-77
2023/06/22 11:54:22;;;;;;;8.63;2.42;;;24.50;99.90;;;;;;5058382;28;20048;-77
2023/06/22 11:56:48;;;;;;;4.57;2.25;;;24.60;99.90;;;;;;5058009;28;20438;-77
2023/06/22 11:59:14;;;;;;;7.95;2.65;;;24.90;99.90;;;;;;5058140;28;20032;-77
2023/06/22 12:01:39;;;;;;;4.05;2.35;;;24.90;99.90;;;;;;5058144;28;20456;-78
2023/06/22 12:04:05;;;;;;;4.63;2.20;;;24.50;99.90;;;;;;5075615;28;20061;-78
2023/06/22 12:06:38;;;;;;;4.95;2.00;;;24.80;99.90;;;;;;5058008;28;20127;-77
2023/06/22 12:09:04;;;;;;;;;;;24.60;99.90;;;;;;5076300;28;20047;-77
2023/06/22 12:11:30;;;;;;;3.65;1.60;;;24.90;99.90;;;;;;5057701;28;19920;-78
2023/06/22 12:13:56;;;;;;;8.55;2.10;;;24.20;99.90;;;;;;5057746;28;20063;-77
2023/06/22 12:16:21;;;;;;;6.88;2.15;;;24.20;99.90;;;;;;5075464;28;20048;-77
2023/06/22 12:18:47;;;;;;;6.68;2.20;;;24.20;99.90;;;;;;5057515;28;20119;-77
2023/06/22 12:21:13;;;;;;;3.75;1.88;;;24.00;99.90;;;;;;5057640;28;20049;-78
2023/06/22 12:23:38;;;;;;;3.80;1.67;;;23.60;99.90;;;;;;5074918;28;20049;-77
2023/06/22 12:26:04;;;;;;;10.77;2.28;;;23.60;99.90;;;;;;5075610;28;20041;-77
2023/06/22 12:28:30;;;;;;;5.90;2.33;;;23.80;99.90;;;;;;5075521;28;20044;-77